UUMO METAR and TAF | Updated Today

UUMO METAR

Ostafyevo International Airport

Observation time: 7 min. ago

UUMO 242030Z 20003MPS CAVOK 18/09 Q1023 R25/CLRD60 NOSIG RMK QFE752/1002

Need help? Read our tutorial on how to read METARs or read the parsed version below.

Ostafyevo International Airport (UUMO) METAR

  • Weather conditions on Sun, 24 Sep 2023 20:30:00 +0000 (7 min. ago):
  • Present conditions: Dry
  • Clouds: Clear skies
  • Visibility: Greater than 10 km
  • Wind: 200 degrees at 3 knots
  • Temperature: 18 celsius
  • Dew point: 9 celsius
  • Pressure: 1023 millibars
  • Remarks: QFE752/1002


Useful to know...

UUMO TAF

Ostafyevo International Airport

TAF UUMO 241657Z 2418/2503 20005MPS 9999 BKN025 TEMPO 2421/2503 4000 -SHRA SCT006 BKN015CB
Observation time: 3:40 hr. ago
Need help? Read our tutorial on how to read TAFs or read the parsed version below.

Parsed version of TAF for Ostafyevo International Airport (UUMO)

  • From 24 September at 18:00 UTC, to day 25 of the month at 03:00 UTC
  • Clouds: Broken sky at 762 meters
  • Visibility: Greater than 10 km
  • Wind: 200 degrees at 5
  • Expected to arise temporarily, from 24 September at 21:00 UTC, to day 25 of the month at 03:00 UTC
  • Clouds: Scattered at 183 meters; broken sky at 457 meters, cumulonimbus
  • Visibility: 4000 meters
  • Other: Light showers of rain